Time;durP1;ratioP1;P1;durP2;ratioP2;P2;SDS_P1;SDS_P2;PMS_P1;PMS_P2;Temp;Humidity;BMP_temperature;BMP_pressure;BME280_temperature;BME280_humidity;BME280_pressure;Samples;Min_cycle;Max_cycle;Signal;HPM_P1;HPM_P2
2021/12/31 00:00:45;;;;;;;0.67;0.30;;;11.20;99.90;;;;;;4917592;29;20440;-78
2021/12/31 00:03:12;;;;;;;0.60;0.30;;;11.20;99.90;;;;;;4917782;29;20482;-78
2021/12/31 00:05:38;;;;;;;0.30;0.30;;;11.10;99.90;;;;;;4917744;29;20467;-78
2021/12/31 00:08:05;;;;;;;0.30;0.30;;;11.10;99.90;;;;;;4917503;29;20488;-78
2021/12/31 00:10:32;;;;;;;0.40;0.30;;;11.00;99.90;;;;;;4917427;29;20526;-78
2021/12/31 00:13:00;;;;;;;0.40;0.30;;;11.00;99.90;;;;;;4917233;29;20984;-78
2021/12/31 00:15:27;;;;;;;0.30;0.20;;;11.00;99.90;;;;;;4917300;29;20928;-78
2021/12/31 00:17:54;;;;;;;0.30;0.30;;;11.00;99.90;;;;;;4917552;29;20459;-78
2021/12/31 00:20:24;;;;;;;0.30;0.30;;;11.00;99.90;;;;;;4917668;29;20503;-78
2021/12/31 00:23:02;;;;;;;0.40;0.30;;;10.90;99.90;;;;;;4917208;29;21075;-78
2021/12/31 00:25:29;;;;;;;0.30;0.30;;;10.90;99.90;;;;;;4917449;29;20531;-78
2021/12/31 00:27:56;;;;;;;0.50;0.30;;;10.90;99.90;;;;;;4917388;29;20531;-78
2021/12/31 00:30:24;;;;;;;0.40;0.30;;;10.90;99.90;;;;;;4917306;29;20452;-78
2021/12/31 00:32:51;;;;;;;0.40;0.30;;;10.80;99.90;;;;;;4916939;29;20487;-78
2021/12/31 00:35:18;;;;;;;0.40;0.30;;;10.80;99.90;;;;;;4916424;29;20459;-78
2021/12/31 00:37:46;;;;;;;0.40;0.30;;;10.70;99.90;;;;;;4917079;29;20452;-78
2021/12/31 00:40:16;;;;;;;0.33;0.23;;;10.60;99.90;;;;;;4917120;29;20492;-78
2021/12/31 00:42:43;;;;;;;0.30;0.20;;;10.60;99.90;;;;;;4917129;29;20487;-80
2021/12/31 00:45:13;;;;;;;0.30;0.30;;;10.60;99.90;;;;;;4917431;29;20455;-80
2021/12/31 00:47:41;;;;;;;0.40;0.30;;;10.50;99.90;;;;;;4917016;29;20459;-81
2021/12/31 00:50:09;;;;;;;0.30;0.20;;;10.50;99.90;;;;;;4917344;29;20771;-80
2021/12/31 00:52:36;;;;;;;0.40;0.30;;;10.50;99.90;;;;;;4916670;29;20848;-80
2021/12/31 00:55:03;;;;;;;0.60;0.30;;;10.40;99.90;;;;;;4916997;29;20460;-80
2021/12/31 00:57:30;;;;;;;0.30;0.30;;;10.40;99.90;;;;;;4916675;29;20448;-80
2021/12/31 00:59:57;;;;;;;0.30;0.27;;;10.40;99.90;;;;;;4916919;29;20502;-80
2021/12/31 01:02:27;;;;;;;0.40;0.30;;;10.40;99.90;;;;;;4916916;29;20508;-80
2021/12/31 01:04:55;;;;;;;0.50;0.30;;;10.30;99.90;;;;;;4917208;29;20471;-80
2021/12/31 01:07:22;;;;;;;0.50;0.37;;;10.30;99.90;;;;;;4916413;29;20999;-80
2021/12/31 01:09:49;;;;;;;2.20;0.40;;;10.30;99.90;;;;;;4916565;29;20928;-80
2021/12/31 01:12:15;;;;;;;0.30;0.30;;;10.20;99.90;;;;;;4916737;29;20483;-80
2021/12/31 01:14:53;;;;;;;0.30;0.30;;;10.20;99.90;;;;;;4916793;29;20455;-80
2021/12/31 01:17:26;;;;;;;0.30;0.20;;;10.10;99.90;;;;;;4916589;29;20991;-80
2021/12/31 01:19:52;;;;;;;0.30;0.30;;;10.00;99.90;;;;;;4916606;29;20543;-80
2021/12/31 01:22:24;;;;;;;0.60;0.60;;;10.00;99.90;;;;;;4916830;29;20480;-80
2021/12/31 01:24:51;;;;;;;0.30;0.20;;;9.90;99.90;;;;;;4917023;29;20528;-80
2021/12/31 01:27:18;;;;;;;0.30;0.30;;;9.80;99.90;;;;;;4916488;29;20812;-80
2021/12/31 01:29:45;;;;;;;0.40;0.30;;;9.80;99.90;;;;;;4916392;29;20448;-80
2021/12/31 01:32:12;;;;;;;0.30;0.20;;;9.80;99.90;;;;;;4916323;29;20483;-80
2021/12/31 01:34:40;;;;;;;0.30;0.30;;;9.70;99.90;;;;;;4916335;29;20460;-80
2021/12/31 01:37:08;;;;;;;0.30;0.20;;;9.60;99.90;;;;;;4916582;29;20456;-80
2021/12/31 01:39:37;;;;;;;0.30;0.30;;;9.60;99.90;;;;;;4916571;29;20492;-80
2021/12/31 01:42:07;;;;;;;0.30;0.20;;;9.50;99.90;;;;;;4916206;29;20838;-80
2021/12/31 01:44:37;;;;;;;0.30;0.30;;;9.50;99.90;;;;;;4916310;29;20787;-80
2021/12/31 01:47:09;;;;;;;0.30;0.30;;;9.50;99.90;;;;;;4919840;29;20443;-80
2021/12/31 01:49:39;;;;;;;0.30;0.20;;;9.40;99.90;;;;;;4920464;29;20440;-80
2021/12/31 01:52:07;;;;;;;0.30;0.30;;;9.30;99.90;;;;;;4919956;29;20484;-80
2021/12/31 01:54:36;;;;;;;0.30;0.20;;;9.40;99.90;;;;;;4919816;29;20455;-81
2021/12/31 01:57:05;;;;;;;0.30;0.20;;;9.30;99.90;;;;;;4919968;29;20459;-80
2021/12/31 01:59:33;;;;;;;0.30;0.30;;;9.30;99.90;;;;;;4919807;29;20999;-80
2021/12/31 02:02:01;;;;;;;0.30;0.20;;;9.20;99.90;;;;;;4919642;29;20553;-80
2021/12/31 02:04:30;;;;;;;0.40;0.30;;;9.20;99.90;;;;;;4919974;29;20460;-80
2021/12/31 02:06:58;;;;;;;0.50;0.30;;;9.20;99.90;;;;;;4919610;29;20511;-80
2021/12/31 02:09:25;;;;;;;0.50;0.30;;;9.20;99.90;;;;;;4920630;29;20459;-80
2021/12/31 02:11:55;;;;;;;0.30;0.20;;;9.10;99.90;;;;;;4919998;29;20476;-80
2021/12/31 02:14:24;;;;;;;0.30;0.20;;;9.10;99.90;;;;;;4919455;29;20971;-80
2021/12/31 02:16:51;;;;;;;0.30;0.20;;;9.10;99.90;;;;;;4919468;29;20924;-80
2021/12/31 02:19:26;;;;;;;0.30;0.27;;;9.10;99.90;;;;;;4919328;29;20982;-80
2021/12/31 02:21:55;;;;;;;0.40;0.30;;;9.00;99.90;;;;;;4920271;29;20511;-80
2021/12/31 02:24:22;;;;;;;0.30;0.30;;;9.00;99.90;;;;;;4919822;29;20451;-80
2021/12/31 02:26:50;;;;;;;0.30;0.30;;;9.00;99.90;;;;;;4919253;29;21078;-80
2021/12/31 02:29:17;;;;;;;0.30;0.30;;;8.90;99.90;;;;;;4919489;29;20511;-80
2021/12/31 02:31:44;;;;;;;0.30;0.20;;;8.90;99.90;;;;;;4919153;29;20940;-80
2021/12/31 02:34:11;;;;;;;0.30;0.30;;;8.90;99.90;;;;;;4919442;29;20452;-80
2021/12/31 02:36:38;;;;;;;0.30;0.30;;;8.90;99.90;;;;;;4919085;29;20458;-80
2021/12/31 02:39:06;;;;;;;0.30;0.30;;;8.80;99.90;;;;;;4919145;29;20441;-80
2021/12/31 02:41:33;;;;;;;0.30;0.20;;;8.80;99.90;;;;;;4918933;29;20983;-80
2021/12/31 02:44:00;;;;;;;0.30;0.30;;;8.80;99.90;;;;;;4919019;29;20448;-80
2021/12/31 02:46:27;;;;;;;0.30;0.30;;;8.80;99.90;;;;;;4918971;29;20448;-80
2021/12/31 02:48:57;;;;;;;0.30;0.20;;;8.90;99.90;;;;;;4919082;29;20948;-80
2021/12/31 02:51:25;;;;;;;0.40;0.30;;;8.90;99.90;;;;;;4919232;29;20432;-80
2021/12/31 02:53:53;;;;;;;0.30;0.30;;;8.90;99.90;;;;;;4919266;29;20468;-80
2021/12/31 02:56:22;;;;;;;0.40;0.27;;;8.90;99.90;;;;;;4918775;29;20437;-80
2021/12/31 02:58:50;;;;;;;0.30;0.30;;;8.90;99.90;;;;;;4918352;29;20436;-80
2021/12/31 03:01:16;;;;;;;0.40;0.40;;;8.90;99.90;;;;;;4918636;29;20995;-80
2021/12/31 03:03:45;;;;;;;0.40;0.30;;;8.90;99.90;;;;;;4919077;29;20483;-80
2021/12/31 03:06:13;;;;;;;0.30;0.20;;;8.90;99.90;;;;;;4918437;29;20488;-80
2021/12/31 03:08:48;;;;;;;0.30;0.30;;;8.90;99.90;;;;;;4919097;29;20440;-80
2021/12/31 03:11:18;;;;;;;0.30;0.23;;;8.90;99.90;;;;;;4919426;29;20448;-80
2021/12/31 03:13:51;;;;;;;0.40;0.30;;;8.80;99.90;;;;;;4918460;29;20830;-82
2021/12/31 03:16:20;;;;;;;0.30;0.20;;;8.80;99.90;;;;;;4918761;29;20456;-82
2021/12/31 03:18:47;;;;;;;0.30;0.30;;;8.80;99.90;;;;;;4918359;29;20800;-82
2021/12/31 03:21:21;;;;;;;0.30;0.20;;;8.80;99.90;;;;;;4918241;29;20861;-82
2021/12/31 03:23:48;;;;;;;0.30;0.20;;;8.80;99.90;;;;;;4918301;29;20566;-82
2021/12/31 03:26:15;;;;;;;0.30;0.20;;;8.80;99.90;;;;;;4918217;29;20821;-82
2021/12/31 03:28:42;;;;;;;0.30;0.20;;;8.80;99.90;;;;;;4918211;29;20444;-82
2021/12/31 03:31:10;;;;;;;0.30;0.30;;;8.70;99.90;;;;;;4918413;29;20448;-82
2021/12/31 03:33:36;;;;;;;0.30;0.30;;;8.70;99.90;;;;;;4918329;29;20480;-82
2021/12/31 03:36:04;;;;;;;0.30;0.20;;;8.70;99.90;;;;;;4918269;29;20456;-82
2021/12/31 03:38:30;;;;;;;0.30;0.20;;;8.70;99.90;;;;;;4918869;29;20464;-82
2021/12/31 03:40:57;;;;;;;0.30;0.30;;;8.60;99.90;;;;;;4918183;29;20490;-82
2021/12/31 03:43:24;;;;;;;0.30;0.20;;;8.60;99.90;;;;;;4917869;29;21019;-82
2021/12/31 03:45:50;;;;;;;0.30;0.20;;;8.60;99.90;;;;;;4918170;29;20463;-82
2021/12/31 03:48:19;;;;;;;0.30;0.20;;;8.60;99.90;;;;;;4918139;29;20460;-82
2021/12/31 03:50:46;;;;;;;0.30;0.30;;;8.60;99.90;;;;;;4918051;29;20456;-82
2021/12/31 03:53:14;;;;;;;0.30;0.20;;;8.60;99.90;;;;;;4917699;29;20980;-82
2021/12/31 03:55:41;;;;;;;0.30;0.27;;;8.50;99.90;;;;;;4917679;29;21003;-82
2021/12/31 03:58:08;;;;;;;0.30;0.27;;;8.50;99.90;;;;;;4917628;29;20459;-82
2021/12/31 04:00:35;;;;;;;0.30;0.20;;;8.50;99.90;;;;;;4917491;29;20487;-82
2021/12/31 04:03:06;;;;;;;0.30;0.20;;;8.50;99.90;;;;;;4917478;29;20479;-82
2021/12/31 04:05:34;;;;;;;0.30;0.20;;;8.40;99.90;;;;;;4917797;29;20412;-82
2021/12/31 04:08:00;;;;;;;0.30;0.20;;;8.40;99.90;;;;;;4917276;29;20488;-82
2021/12/31 04:10:28;;;;;;;0.30;0.30;;;8.40;99.90;;;;;;4918001;29;20553;-82
2021/12/31 04:12:55;;;;;;;0.40;0.30;;;8.40;99.90;;;;;;4917867;29;20476;-82
2021/12/31 04:15:23;;;;;;;0.30;0.27;;;8.30;99.90;;;;;;4917382;29;20448;-82
2021/12/31 04:17:49;;;;;;;0.30;0.20;;;8.30;99.90;;;;;;4917324;29;20952;-82
2021/12/31 04:20:21;;;;;;;0.30;0.30;;;8.30;99.90;;;;;;4917467;29;20496;-82
2021/12/31 04:22:53;;;;;;;0.30;0.20;;;8.30;99.90;;;;;;4917211;29;20487;-80
2021/12/31 04:25:21;;;;;;;0.30;0.20;;;8.30;99.90;;;;;;4917230;29;20935;-80
2021/12/31 04:27:47;;;;;;;0.30;0.20;;;8.20;99.90;;;;;;4917394;29;20456;-80
2021/12/31 04:30:15;;;;;;;0.30;0.20;;;8.20;99.90;;;;;;4917344;29;20456;-80
2021/12/31 04:32:42;;;;;;;0.97;0.97;;;8.20;99.90;;;;;;4917278;29;20471;-80
2021/12/31 04:35:11;;;;;;;0.30;0.20;;;8.20;99.90;;;;;;4917007;29;20495;-80
2021/12/31 04:37:39;;;;;;;0.30;0.30;;;8.10;99.90;;;;;;4917207;29;20551;-80
2021/12/31 04:40:09;;;;;;;0.30;0.20;;;8.10;99.90;;;;;;4916867;29;21026;-80
2021/12/31 04:42:36;;;;;;;0.30;0.20;;;8.10;99.90;;;;;;4917061;29;20458;-80
2021/12/31 04:45:04;;;;;;;0.30;0.30;;;8.00;99.90;;;;;;4917192;29;20459;-80
2021/12/31 04:47:30;;;;;;;0.30;0.30;;;8.10;99.90;;;;;;4916911;29;20448;-80
2021/12/31 04:49:57;;;;;;;0.30;0.30;;;8.00;99.90;;;;;;4917134;29;20448;-80
2021/12/31 04:52:24;;;;;;;0.53;0.53;;;8.00;99.90;;;;;;4916713;29;20460;-80
2021/12/31 04:54:50;;;;;;;0.30;0.20;;;8.00;99.90;;;;;;4917246;29;20574;-80
2021/12/31 04:57:20;;;;;;;0.30;0.20;;;7.90;99.90;;;;;;4917208;29;20948;-80
2021/12/31 04:59:47;;;;;;;0.30;0.20;;;7.90;99.90;;;;;;4916713;29;20572;-80
2021/12/31 05:02:13;;;;;;;0.30;0.20;;;7.90;99.90;;;;;;4916555;29;20495;-80
2021/12/31 05:04:40;;;;;;;1.07;0.30;;;7.90;99.90;;;;;;4916672;29;20778;-80
2021/12/31 05:07:07;;;;;;;0.30;0.20;;;7.90;99.90;;;;;;4916470;29;21027;-78
2021/12/31 05:09:34;;;;;;;0.30;0.20;;;7.90;99.90;;;;;;4916885;29;20451;-78
2021/12/31 05:12:01;;;;;;;0.30;0.20;;;7.90;99.90;;;;;;4916895;29;20480;-77
2021/12/31 05:14:29;;;;;;;0.30;0.30;;;7.90;99.90;;;;;;4916524;29;20910;-78
2021/12/31 05:16:56;;;;;;;0.30;0.20;;;7.90;99.90;;;;;;4916735;29;20464;-78
2021/12/31 05:19:23;;;;;;;3.90;0.50;;;7.90;99.90;;;;;;4916750;29;20451;-78
2021/12/31 05:21:50;;;;;;;0.30;0.20;;;7.80;99.90;;;;;;4919700;29;20496;-78
2021/12/31 05:24:16;;;;;;;0.50;0.30;;;7.80;99.90;;;;;;4920711;29;20844;-78
2021/12/31 05:26:43;;;;;;;0.60;0.30;;;7.80;99.90;;;;;;4920677;29;20472;-82
2021/12/31 05:29:10;;;;;;;0.30;0.20;;;7.80;99.90;;;;;;4920641;29;20470;-82
2021/12/31 05:31:38;;;;;;;0.30;0.30;;;7.80;99.90;;;;;;4920322;29;20957;-82
2021/12/31 05:34:05;;;;;;;0.30;0.20;;;7.80;99.90;;;;;;4920628;29;20463;-82
2021/12/31 05:36:32;;;;;;;0.30;0.20;;;7.80;99.90;;;;;;4920343;29;20456;-82
2021/12/31 05:38:59;;;;;;;0.30;0.30;;;7.80;99.90;;;;;;4920148;29;20941;-82
2021/12/31 05:41:25;;;;;;;0.30;0.20;;;7.80;99.90;;;;;;4920286;29;20487;-82
2021/12/31 05:43:52;;;;;;;0.30;0.20;;;7.90;99.90;;;;;;4920518;29;20472;-82
2021/12/31 05:46:19;;;;;;;0.30;0.20;;;7.90;99.90;;;;;;4920761;29;20452;-82
2021/12/31 05:48:47;;;;;;;0.30;0.20;;;7.90;99.90;;;;;;4920272;29;20465;-82
2021/12/31 05:51:14;;;;;;;0.30;0.20;;;7.90;99.90;;;;;;4919964;29;20444;-82
2021/12/31 05:53:40;;;;;;;0.30;0.20;;;7.90;99.90;;;;;;4919933;29;21022;-82
2021/12/31 05:56:07;;;;;;;0.30;0.27;;;7.90;99.90;;;;;;4920012;29;20467;-82
2021/12/31 05:58:34;;;;;;;0.30;0.30;;;8.00;99.90;;;;;;4920077;29;20462;-82
2021/12/31 06:01:00;;;;;;;0.30;0.20;;;7.90;99.90;;;;;;4919769;29;20464;-82
2021/12/31 06:03:27;;;;;;;0.33;0.33;;;7.90;99.90;;;;;;4919937;29;20467;-82
2021/12/31 06:05:55;;;;;;;0.60;0.40;;;7.90;99.90;;;;;;4919759;29;20484;-82
2021/12/31 06:08:22;;;;;;;0.40;0.30;;;8.00;99.90;;;;;;4919978;29;20881;-82
2021/12/31 06:10:49;;;;;;;0.30;0.20;;;8.00;99.90;;;;;;4919681;29;20444;-82
2021/12/31 06:13:16;;;;;;;0.40;0.40;;;8.00;99.90;;;;;;4919740;29;20479;-82
2021/12/31 06:15:44;;;;;;;0.30;0.20;;;8.10;99.90;;;;;;4919787;29;20551;-82
2021/12/31 06:18:11;;;;;;;0.30;0.23;;;8.10;99.90;;;;;;4919962;29;20456;-82
2021/12/31 06:20:38;;;;;;;0.30;0.20;;;8.10;99.90;;;;;;4919527;29;20499;-82
2021/12/31 06:23:06;;;;;;;0.37;0.37;;;8.10;99.90;;;;;;4919670;29;20480;-82
2021/12/31 06:25:33;;;;;;;0.30;0.20;;;8.10;99.90;;;;;;4919594;29;20479;-82
2021/12/31 06:28:01;;;;;;;0.30;0.30;;;8.10;99.90;;;;;;4919568;29;20460;-81
2021/12/31 06:30:28;;;;;;;0.30;0.20;;;8.10;99.90;;;;;;4919480;29;21013;-80
2021/12/31 06:32:55;;;;;;;0.40;0.30;;;8.00;99.90;;;;;;4919314;29;20482;-80
2021/12/31 06:35:22;;;;;;;0.30;0.20;;;8.00;99.90;;;;;;4919489;29;20456;-80
2021/12/31 06:37:51;;;;;;;0.30;0.20;;;8.00;99.90;;;;;;4919138;29;20456;-80
2021/12/31 06:40:20;;;;;;;0.30;0.20;;;8.00;99.90;;;;;;4919074;29;20980;-81
2021/12/31 06:42:47;;;;;;;0.30;0.20;;;7.90;99.90;;;;;;4918932;29;20492;-81
2021/12/31 06:45:13;;;;;;;0.73;0.73;;;7.90;99.90;;;;;;4919272;29;20448;-81
2021/12/31 06:47:40;;;;;;;0.30;0.20;;;7.90;99.90;;;;;;4919466;29;20456;-82
2021/12/31 06:50:07;;;;;;;0.30;0.30;;;7.90;99.90;;;;;;4918872;29;20975;-81
2021/12/31 06:52:37;;;;;;;0.80;0.60;;;8.00;99.90;;;;;;4919049;29;20464;-81
2021/12/31 06:55:05;;;;;;;0.30;0.20;;;8.00;99.90;;;;;;4919143;29;20436;-81
2021/12/31 06:57:33;;;;;;;0.30;0.20;;;8.00;99.90;;;;;;4919071;29;20456;-81
2021/12/31 07:00:00;;;;;;;0.30;0.30;;;8.00;99.90;;;;;;4919073;29;20456;-81
2021/12/31 07:02:27;;;;;;;0.30;0.30;;;7.90;99.90;;;;;;4918618;29;20503;-81
2021/12/31 07:04:53;;;;;;;0.30;0.20;;;8.00;99.90;;;;;;4918703;29;20447;-81
2021/12/31 07:07:20;;;;;;;0.30;0.30;;;7.90;99.90;;;;;;4918464;29;20476;-81
2021/12/31 07:09:47;;;;;;;0.30;0.30;;;7.90;99.90;;;;;;4918628;29;20441;-81
2021/12/31 07:12:13;;;;;;;0.30;0.20;;;7.90;99.90;;;;;;4918732;29;20831;-81
2021/12/31 07:14:41;;;;;;;0.30;0.20;;;7.90;99.90;;;;;;4918661;29;20952;-81
2021/12/31 07:17:08;;;;;;;0.30;0.20;;;7.80;99.90;;;;;;4918760;29;20461;-81
2021/12/31 07:19:35;;;;;;;0.30;0.30;;;7.80;99.90;;;;;;4918667;29;20448;-81
2021/12/31 07:22:02;;;;;;;0.30;0.30;;;7.80;99.90;;;;;;4918493;29;20498;-80
2021/12/31 07:24:29;;;;;;;0.30;0.20;;;7.80;99.90;;;;;;4918325;29;20936;-80
2021/12/31 07:26:56;;;;;;;0.57;0.57;;;7.80;99.90;;;;;;4918493;29;20413;-80
2021/12/31 07:29:22;;;;;;;0.30;0.20;;;7.80;99.90;;;;;;4918533;29;20416;-80
2021/12/31 07:31:50;;;;;;;0.30;0.20;;;7.80;99.90;;;;;;4918336;29;20467;-80
2021/12/31 07:34:17;;;;;;;0.30;0.20;;;7.80;99.90;;;;;;4918382;29;20440;-80
2021/12/31 07:36:44;;;;;;;0.30;0.20;;;7.90;99.90;;;;;;4918071;29;20439;-80
2021/12/31 07:39:13;;;;;;;0.30;0.30;;;7.90;99.90;;;;;;4918350;29;20440;-80
2021/12/31 07:41:40;;;;;;;0.50;0.50;;;8.00;99.90;;;;;;4918128;29;20487;-80
2021/12/31 07:44:07;;;;;;;0.30;0.23;;;8.00;99.90;;;;;;4917702;29;20444;-80
2021/12/31 07:46:34;;;;;;;0.30;0.30;;;8.10;99.90;;;;;;4917930;29;20817;-80
2021/12/31 07:49:02;;;;;;;0.30;0.20;;;8.20;99.90;;;;;;4917916;29;20417;-80
2021/12/31 07:51:28;;;;;;;0.30;0.20;;;8.20;99.90;;;;;;4918030;29;20437;-80
2021/12/31 07:53:55;;;;;;;0.30;0.30;;;8.30;99.90;;;;;;4918060;29;20439;-80
2021/12/31 07:56:22;;;;;;;0.30;0.20;;;8.40;99.90;;;;;;4917722;29;20444;-80
2021/12/31 07:58:48;;;;;;;0.30;0.20;;;8.40;99.90;;;;;;4917871;29;20460;-80
2021/12/31 08:01:16;;;;;;;0.30;0.20;;;8.40;99.90;;;;;;4917828;29;20491;-80
2021/12/31 08:03:43;;;;;;;0.30;0.30;;;8.50;99.90;;;;;;4917774;29;20563;-80
2021/12/31 08:06:11;;;;;;;0.33;0.27;;;8.60;99.90;;;;;;4917619;29;20499;-80
2021/12/31 08:08:38;;;;;;;0.53;0.50;;;8.60;99.90;;;;;;4917766;29;20452;-80
2021/12/31 08:11:05;;;;;;;0.30;0.20;;;8.70;99.90;;;;;;4917690;29;20463;-81
2021/12/31 08:13:32;;;;;;;0.37;0.27;;;8.70;99.90;;;;;;4917360;29;20834;-80
2021/12/31 08:15:58;;;;;;;0.30;0.30;;;8.80;99.90;;;;;;4917375;29;20812;-80
2021/12/31 08:18:25;;;;;;;0.30;0.23;;;8.80;99.90;;;;;;4917556;29;20459;-80
2021/12/31 08:20:52;;;;;;;0.40;0.30;;;8.90;99.90;;;;;;4917543;29;20456;-80
2021/12/31 08:23:20;;;;;;;0.30;0.30;;;8.90;99.90;;;;;;4917115;29;20495;-80
2021/12/31 08:25:47;;;;;;;0.40;0.37;;;9.00;99.90;;;;;;4917134;29;20456;-80
2021/12/31 08:28:14;;;;;;;0.30;0.20;;;9.00;99.90;;;;;;4917119;29;20980;-80
2021/12/31 08:30:41;;;;;;;0.30;0.20;;;9.10;99.90;;;;;;4917133;29;20809;-80
2021/12/31 08:33:08;;;;;;;0.47;0.47;;;9.20;99.90;;;;;;4917052;29;20464;-80
2021/12/31 08:35:34;;;;;;;0.30;0.30;;;9.30;99.90;;;;;;4917283;29;20456;-80
2021/12/31 08:38:02;;;;;;;0.40;0.30;;;9.40;99.90;;;;;;4917246;29;20452;-80
2021/12/31 08:40:30;;;;;;;0.30;0.27;;;9.40;99.90;;;;;;4917263;29;20463;-80
2021/12/31 08:42:57;;;;;;;0.97;0.40;;;9.50;99.90;;;;;;4916759;29;20995;-80
2021/12/31 08:45:25;;;;;;;0.57;0.37;;;9.60;99.90;;;;;;4916824;29;20960;-80
2021/12/31 08:47:52;;;;;;;0.40;0.30;;;9.60;99.90;;;;;;4916829;29;20947;-80
2021/12/31 08:50:19;;;;;;;0.30;0.20;;;9.70;99.90;;;;;;4916793;29;20440;-80
2021/12/31 08:52:47;;;;;;;0.30;0.20;;;9.60;99.90;;;;;;4916909;29;20468;-80
2021/12/31 08:55:13;;;;;;;2.20;0.40;;;9.70;99.90;;;;;;4916256;29;20456;-80
2021/12/31 08:57:42;;;;;;;0.40;0.30;;;9.70;99.90;;;;;;4916944;29;20460;-80
2021/12/31 09:00:10;;;;;;;0.87;0.53;;;9.70;99.90;;;;;;4917199;29;20456;-80
2021/12/31 09:02:39;;;;;;;0.40;0.30;;;9.80;99.90;;;;;;4915627;29;20507;-80
2021/12/31 09:05:07;;;;;;;0.30;0.30;;;9.80;99.90;;;;;;4916912;29;20459;-80
2021/12/31 09:07:34;;;;;;;0.60;0.50;;;9.90;99.90;;;;;;4916540;29;20514;-81
2021/12/31 09:10:01;;;;;;;0.93;0.93;;;9.90;99.90;;;;;;4916528;29;20467;-80
2021/12/31 09:12:28;;;;;;;0.30;0.30;;;9.90;99.90;;;;;;4916729;29;20472;-80
2021/12/31 09:14:56;;;;;;;0.37;0.33;;;9.90;99.90;;;;;;4916719;29;20829;-80
2021/12/31 09:17:23;;;;;;;0.50;0.50;;;9.80;99.90;;;;;;4916761;29;20801;-80
2021/12/31 09:19:50;;;;;;;0.70;0.70;;;9.80;99.90;;;;;;4916756;29;20456;-80
2021/12/31 09:22:17;;;;;;;0.40;0.33;;;9.90;99.90;;;;;;4916567;29;21012;-80
2021/12/31 09:24:44;;;;;;;0.30;0.20;;;10.00;99.90;;;;;;4916458;29;20971;-80
2021/12/31 09:27:10;;;;;;;0.60;0.40;;;10.00;99.90;;;;;;4916733;29;20456;-80
2021/12/31 09:29:37;;;;;;;0.30;0.30;;;10.00;99.90;;;;;;4916705;29;20460;-80
2021/12/31 09:32:06;;;;;;;0.90;0.50;;;10.10;99.90;;;;;;4916883;29;20476;-85
2021/12/31 09:34:34;;;;;;;0.37;0.33;;;10.10;99.90;;;;;;4916526;29;20940;-85
2021/12/31 09:37:01;;;;;;;0.43;0.43;;;10.10;99.90;;;;;;4916722;29;20458;-84
2021/12/31 09:39:28;;;;;;;1.37;0.40;;;10.10;99.90;;;;;;4916776;29;20456;-84
2021/12/31 09:41:54;;;;;;;2.73;0.43;;;10.30;99.90;;;;;;4916314;29;20863;-85
2021/12/31 09:44:21;;;;;;;1.63;0.40;;;10.30;99.90;;;;;;4916623;29;20459;-85
2021/12/31 09:46:48;;;;;;;0.50;0.30;;;10.40;99.90;;;;;;4916603;29;20488;-85
2021/12/31 09:49:16;;;;;;;0.40;0.40;;;10.30;99.90;;;;;;4916441;29;20452;-85
2021/12/31 09:51:44;;;;;;;1.27;1.17;;;10.30;99.90;;;;;;4917178;29;20452;-85
2021/12/31 09:54:12;;;;;;;0.40;0.40;;;10.30;99.90;;;;;;4916618;29;20459;-85
2021/12/31 09:56:40;;;;;;;0.50;0.50;;;10.20;99.90;;;;;;4916489;29;20827;-85
2021/12/31 09:59:07;;;;;;;1.13;0.60;;;10.20;99.90;;;;;;4916378;29;20440;-85
2021/12/31 10:01:43;;;;;;;0.50;0.40;;;10.20;99.90;;;;;;4916121;29;20459;-85
2021/12/31 10:04:10;;;;;;;0.30;0.20;;;10.20;99.90;;;;;;4916521;29;20790;-85
2021/12/31 10:06:38;;;;;;;0.53;0.53;;;10.20;99.90;;;;;;4917043;29;20488;-85
2021/12/31 10:09:05;;;;;;;0.40;0.40;;;10.30;99.90;;;;;;4919714;29;20451;-85
2021/12/31 10:11:32;;;;;;;0.67;0.37;;;10.40;99.90;;;;;;4919902;29;20458;-85
2021/12/31 10:14:01;;;;;;;0.40;0.40;;;10.40;99.90;;;;;;4919727;29;20444;-86
2021/12/31 10:16:29;;;;;;;1.37;0.30;;;10.30;99.90;;;;;;4919939;29;20456;-85
2021/12/31 10:19:07;;;;;;;0.87;0.50;;;10.30;99.90;;;;;;4920399;29;20467;-85
2021/12/31 10:21:41;;;;;;;1.37;0.90;;;10.40;99.90;;;;;;4919801;29;21067;-85
2021/12/31 10:24:25;;;;;;;4.87;0.57;;;10.50;99.90;;;;;;4919962;29;20499;-85
2021/12/31 10:26:52;;;;;;;0.40;0.40;;;10.70;99.90;;;;;;4918912;29;20456;-85
2021/12/31 10:29:18;;;;;;;0.50;0.50;;;10.90;99.90;;;;;;4919781;29;20818;-85
2021/12/31 10:31:47;;;;;;;0.77;0.60;;;10.90;99.90;;;;;;4919399;29;20833;-85
2021/12/31 10:34:29;;;;;;;0.80;0.50;;;10.90;99.90;;;;;;4919591;29;20451;-85
2021/12/31 10:36:59;;;;;;;0.70;0.33;;;11.00;99.90;;;;;;4919962;29;20474;-85
2021/12/31 10:39:27;;;;;;;1.90;0.40;;;11.20;99.90;;;;;;4919527;29;21039;-85
2021/12/31 10:42:04;;;;;;;0.40;0.30;;;11.40;99.90;;;;;;4919209;29;20468;-85
2021/12/31 10:44:45;;;;;;;0.60;0.60;;;11.70;99.90;;;;;;4919388;29;20447;-85
2021/12/31 10:47:13;;;;;;;0.47;0.37;;;11.70;99.90;;;;;;4919399;29;20528;-84
2021/12/31 10:50:09;;;;;;;0.43;0.40;;;11.80;99.90;;;;;;4919244;29;20817;-85
2021/12/31 10:52:41;;;;;;;0.30;0.30;;;11.80;99.90;;;;;;4918748;29;21055;-85
2021/12/31 10:55:21;;;;;;;0.60;0.40;;;11.80;99.90;;;;;;4919437;29;20527;-85
2021/12/31 10:57:51;;;;;;;0.40;0.30;;;11.70;99.90;;;;;;4918941;29;20446;-85
2021/12/31 11:00:20;;;;;;;3.20;0.40;;;11.60;99.90;;;;;;4919046;29;20803;-84
2021/12/31 11:02:48;;;;;;;0.40;0.30;;;11.50;99.90;;;;;;4918829;29;20492;-84
2021/12/31 11:05:17;;;;;;;1.07;0.40;;;11.60;99.90;;;;;;4919164;29;20460;-84
2021/12/31 11:07:46;;;;;;;0.30;0.30;;;11.50;99.90;;;;;;4918920;29;20503;-84
2021/12/31 11:10:15;;;;;;;3.40;0.50;;;11.50;99.90;;;;;;4919076;29;20471;-85
2021/12/31 11:12:46;;;;;;;0.40;0.40;;;11.50;99.90;;;;;;4919003;29;20468;-85
2021/12/31 11:15:15;;;;;;;0.60;0.47;;;11.50;99.90;;;;;;4919370;29;20446;-85
2021/12/31 11:17:42;;;;;;;0.70;0.70;;;11.60;99.90;;;;;;4918054;29;20449;-85
2021/12/31 11:20:10;;;;;;;0.37;0.30;;;11.60;99.90;;;;;;4918594;29;20944;-85
2021/12/31 11:22:38;;;;;;;0.50;0.50;;;11.60;99.90;;;;;;4920333;29;20586;-84
2021/12/31 11:25:28;;;;;;;0.40;0.40;;;11.50;99.90;;;;;;4918900;29;20456;-85
2021/12/31 11:27:56;;;;;;;0.47;0.47;;;11.50;99.90;;;;;;4916727;29;20468;-84
2021/12/31 11:30:31;;;;;;;0.63;0.63;;;11.60;99.90;;;;;;4918895;29;20437;-87
2021/12/31 11:33:06;;;;;;;0.40;0.37;;;11.60;99.90;;;;;;4918653;29;20861;-79
2021/12/31 11:35:43;;;;;;;0.70;0.40;;;11.60;99.90;;;;;;4918156;29;20454;-79
2021/12/31 11:38:15;;;;;;;0.50;0.50;;;11.60;99.90;;;;;;4919549;29;20435;-87
2021/12/31 11:40:49;;;;;;;0.67;0.60;;;11.60;99.90;;;;;;4919658;29;20440;-88
2021/12/31 11:43:25;;;;;;;1.13;0.50;;;11.60;99.90;;;;;;4918663;29;20487;-87
2021/12/31 11:46:44;;;;;;;0.53;0.50;;;11.60;99.90;;;;;;4918578;29;20920;-87
2021/12/31 11:49:17;;;;;;;1.03;0.40;;;11.60;99.90;;;;;;4919002;29;20452;-87
2021/12/31 11:51:59;;;;;;;0.60;0.57;;;11.60;99.90;;;;;;4918817;29;20794;-87
2021/12/31 11:54:27;;;;;;;0.70;0.33;;;11.60;99.90;;;;;;4918769;29;20436;-87
2021/12/31 11:56:59;;;;;;;0.40;0.30;;;11.50;99.90;;;;;;4918585;29;20444;-87
2021/12/31 11:59:34;;;;;;;1.13;0.30;;;11.50;99.90;;;;;;4918471;29;21016;-88
2021/12/31 12:02:15;;;;;;;0.40;0.40;;;11.60;99.90;;;;;;4918463;29;20458;-88
2021/12/31 12:04:44;;;;;;;0.50;0.30;;;11.60;99.90;;;;;;4919153;29;20467;-87
2021/12/31 12:07:31;;;;;;;0.40;0.30;;;11.70;99.90;;;;;;4918299;29;20471;-87
2021/12/31 12:10:12;;;;;;;0.30;0.30;;;11.70;99.90;;;;;;4918679;29;20459;-87
2021/12/31 12:12:48;;;;;;;0.50;0.30;;;11.70;99.90;;;;;;4918121;29;20464;-87
2021/12/31 12:15:41;;;;;;;0.40;0.40;;;11.70;99.90;;;;;;4918167;29;20447;-87
2021/12/31 12:18:08;;;;;;;0.70;0.70;;;11.70;99.90;;;;;;4917447;29;20448;-87
2021/12/31 12:20:40;;;;;;;0.40;0.40;;;11.70;99.90;;;;;;4918198;29;20437;-87
2021/12/31 12:23:15;;;;;;;0.33;0.27;;;11.70;99.90;;;;;;4917855;29;20531;-87
2021/12/31 12:25:42;;;;;;;0.60;0.60;;;11.70;99.90;;;;;;4917949;29;20444;-86
2021/12/31 12:28:12;;;;;;;0.40;0.30;;;11.70;99.90;;;;;;4917886;29;20746;-87
2021/12/31 12:30:44;;;;;;;0.40;0.40;;;11.80;99.90;;;;;;4918412;29;20460;-87
2021/12/31 12:33:17;;;;;;;0.37;0.30;;;11.80;99.90;;;;;;4918238;29;20510;-88
2021/12/31 12:35:46;;;;;;;1.17;0.50;;;11.70;99.90;;;;;;4917692;29;20432;-87
2021/12/31 12:38:19;;;;;;;0.50;0.40;;;11.70;99.90;;;;;;4917989;29;20456;-88
2021/12/31 12:40:49;;;;;;;0.40;0.40;;;11.80;99.90;;;;;;4917529;29;20444;-88
2021/12/31 12:43:18;;;;;;;0.30;0.30;;;11.80;99.90;;;;;;4917852;29;20499;-87
2021/12/31 12:45:48;;;;;;;0.40;0.30;;;11.90;99.90;;;;;;4917901;29;20462;-87
2021/12/31 12:48:16;;;;;;;1.00;0.80;;;11.90;99.90;;;;;;4917708;29;20464;-87
2021/12/31 12:50:49;;;;;;;0.50;0.37;;;11.90;99.90;;;;;;4917493;29;20441;-87
2021/12/31 12:53:23;;;;;;;2.00;1.43;;;12.00;99.90;;;;;;4917425;29;20495;-87
2021/12/31 12:55:50;;;;;;;0.40;0.37;;;12.00;99.90;;;;;;4917321;29;20467;-87
2021/12/31 12:58:25;;;;;;;1.47;0.43;;;12.10;99.90;;;;;;4917324;29;20440;-87
2021/12/31 13:00:57;;;;;;;0.40;0.40;;;12.10;99.90;;;;;;4917661;29;20956;-87